Ext Villa Caparra, Puerto Rico
Current Conditions -  °F | °C
As of 9:50 AM on Sunday 23 Nov 2014 (Local Time) from TJIG Reporting Station
Scattered Clouds Scattered Clouds  
Wind Chill: 82°   Ceiling: Unl
Heat Index: 89°   Visibility: 10mi
Dew Point: 75°   Wind: 17mph
Humidity: 79%   Direction: 110°ESE
Pressure: 30.08"   Gusts: NA
Location:  18.3882°N, 66.1144°W
Report Text: TJIG 231350Z 11015KT 10SM SCT033 28/24 A3008 RMK RY09 IN USE ATIS D
Loading
Personal Weather Stations






























Interactive Weather Map New forecast layout! Learn more

10-Day Weather Forecast

Advertisements
Track Severe Weather on mobile